createdAt,value
2022-10-23T00:01:34.232Z,101329.22
2022-10-23T00:04:07.665Z,101323.38
2022-10-23T00:06:36.011Z,101319.13
2022-10-23T00:09:07.163Z,101315.09
2022-10-23T00:11:35.687Z,101309.81
2022-10-23T00:14:06.625Z,101308.97
2022-10-23T00:16:34.779Z,101312.91
2022-10-23T00:19:02.078Z,101308.22
2022-10-23T00:21:29.375Z,101305.09
2022-10-23T00:23:56.875Z,101303.03
2022-10-23T00:26:24.283Z,101303.25
2022-10-23T00:28:53.580Z,101292.22
2022-10-23T00:31:22.164Z,101296.78
2022-10-23T00:33:49.913Z,101297.06
2022-10-23T00:36:18.881Z,101301.13
2022-10-23T00:38:47.503Z,101304.78
2022-10-23T00:41:18.659Z,101308.22
2022-10-23T00:44:06.215Z,101306.78
2022-10-23T00:46:34.473Z,101306.38
2022-10-23T00:49:03.470Z,101299.94
2022-10-23T00:51:38.395Z,101305.22
2022-10-23T00:57:00.612Z,101313.00
2022-10-23T00:59:29.392Z,101315.13
2022-10-23T01:01:56.915Z,101312.81
2022-10-23T01:04:25.537Z,101309.22
2022-10-23T01:07:17.033Z,101305.00
2022-10-23T01:10:14.391Z,101294.13
2022-10-23T01:12:55.722Z,101293.72
2022-10-23T01:15:47.016Z,101296.03
2022-10-23T01:18:38.700Z,101295.13
2022-10-23T01:21:53.539Z,101283.63
2022-10-23T01:24:37.637Z,101285.84
2022-10-23T01:27:13.869Z,101279.59
2022-10-23T01:29:50.649Z,101276.38
2022-10-23T01:32:48.535Z,101296.91
2022-10-23T01:35:26.629Z,101277.31
2022-10-23T01:38:18.325Z,101282.63
2022-10-23T01:41:13.743Z,101284.31
2022-10-23T01:43:56.927Z,101284.69
2022-10-23T01:46:28.429Z,101287.75
2022-10-23T01:48:58.672Z,101274.66
2022-10-23T01:51:29.199Z,101275.22
2022-10-23T01:54:06.474Z,101278.94
2022-10-23T01:56:38.182Z,101265.06
2022-10-23T01:59:11.007Z,101271.59
2022-10-23T02:01:44.704Z,101271.59
2022-10-23T02:04:18.009Z,101268.75
2022-10-23T02:06:45.981Z,101272.22
2022-10-23T02:09:13.353Z,101270.50
2022-10-23T02:11:51.633Z,101268.81
2022-10-23T02:14:52.161Z,101274.19
2022-10-23T02:17:51.269Z,101265.19
2022-10-23T02:20:26.628Z,101269.09
2022-10-23T02:23:19.985Z,101266.19
2022-10-23T02:25:53.864Z,101255.94
2022-10-23T02:28:28.193Z,101263.59
2022-10-23T02:31:00.711Z,101264.13
2022-10-23T02:33:31.211Z,101262.91
2022-10-23T02:35:58.648Z,101261.25
2022-10-23T02:38:43.498Z,101267.81
2022-10-23T02:41:29.911Z,101271.84
2022-10-23T02:44:41.863Z,101271.75
2022-10-23T02:47:37.249Z,101265.63
2022-10-23T02:50:24.848Z,101268.94
2022-10-23T02:53:16.638Z,101263.41
2022-10-23T02:56:29.450Z,101269.81
2022-10-23T02:59:25.054Z,101260.44
2022-10-23T03:02:03.113Z,101274.84
2022-10-23T03:04:32.964Z,101270.72
2022-10-23T03:07:00.468Z,101266.63
2022-10-23T03:09:28.874Z,101255.34
2022-10-23T03:11:56.568Z,101283.91
2022-10-23T03:14:25.149Z,101281.28
2022-10-23T03:16:52.680Z,101274.69
2022-10-23T03:19:20.030Z,101278.56
2022-10-23T03:21:47.346Z,101278.81
2022-10-23T03:24:14.724Z,101283.75
2022-10-23T03:26:43.991Z,101283.50
2022-10-23T03:29:11.352Z,101288.94
2022-10-23T03:31:44.898Z,101291.34
2022-10-23T03:34:13.464Z,101280.72
2022-10-23T03:36:41.558Z,101274.94
2022-10-23T03:39:10.021Z,101275.78
2022-10-23T03:41:37.245Z,101291.34
2022-10-23T03:46:37.269Z,101284.13
2022-10-23T03:49:05.910Z,101288.06
2022-10-23T03:51:33.746Z,101261.91
2022-10-23T03:54:01.218Z,101284.38
2022-10-23T03:56:28.596Z,101277.41
2022-10-23T03:58:55.831Z,101278.38
2022-10-23T04:01:26.782Z,101293.69
2022-10-23T04:03:54.841Z,101294.88
2022-10-23T04:06:24.765Z,101293.00
2022-10-23T04:08:56.260Z,101298.38
2022-10-23T04:11:23.569Z,101304.66
2022-10-23T04:13:50.859Z,101297.16
2022-10-23T04:16:18.462Z,101276.78
2022-10-23T04:18:46.064Z,101292.41
2022-10-23T04:21:13.370Z,101292.63
2022-10-23T04:23:40.726Z,101288.81
2022-10-23T04:26:16.042Z,101288.69
2022-10-23T04:28:43.301Z,101253.63
2022-10-23T04:31:10.799Z,101290.41
2022-10-23T04:33:41.219Z,101290.59
2022-10-23T04:36:09.410Z,101299.00
2022-10-23T04:38:36.705Z,101293.66
2022-10-23T04:41:06.586Z,101283.91
2022-10-23T04:43:34.681Z,101285.84
2022-10-23T04:46:03.868Z,101285.63
2022-10-23T04:48:31.181Z,101288.97
2022-10-23T04:51:17.284Z,101291.03
2022-10-23T04:54:03.038Z,101290.41
2022-10-23T04:56:47.283Z,101283.91
2022-10-23T04:59:21.184Z,101251.97
2022-10-23T05:01:49.269Z,101267.16
2022-10-23T05:04:18.017Z,101268.75
2022-10-23T05:07:04.119Z,101267.22
2022-10-23T05:09:54.123Z,101283.69
2022-10-23T05:12:50.370Z,101279.53
2022-10-23T05:15:18.100Z,101275.34
2022-10-23T05:17:48.406Z,101283.03
2022-10-23T05:20:20.422Z,101273.47
2022-10-23T05:22:51.469Z,101283.03
2022-10-23T05:25:21.468Z,101296.31
2022-10-23T05:27:53.296Z,101293.09
2022-10-23T05:30:21.823Z,101298.44
2022-10-23T05:32:49.508Z,101278.44
2022-10-23T05:35:23.496Z,101279.53
2022-10-23T05:37:53.998Z,101281.47
2022-10-23T05:40:24.446Z,101285.34
2022-10-23T05:42:58.336Z,101287.84
2022-10-23T05:45:40.856Z,101290.50
2022-10-23T05:48:37.137Z,101289.81
2022-10-23T05:51:23.661Z,101286.97
2022-10-23T05:54:20.158Z,101296.22
2022-10-23T05:59:48.792Z,101308.03
2022-10-23T06:02:19.279Z,101308.59
2022-10-23T06:04:54.229Z,101317.66
2022-10-23T06:07:39.814Z,101317.28
2022-10-23T06:10:08.387Z,101309.28
2022-10-23T06:12:40.278Z,101302.75
2022-10-23T06:15:11.144Z,101305.50
2022-10-23T06:18:07.703Z,101322.16
2022-10-23T06:20:39.693Z,101320.28
2022-10-23T06:23:21.379Z,101330.31
2022-10-23T06:26:12.635Z,101339.75
2022-10-23T06:28:56.182Z,101337.53
2022-10-23T06:31:28.136Z,101341.75
2022-10-23T06:33:58.250Z,101342.38
2022-10-23T06:36:26.539Z,101346.34
2022-10-23T06:41:50.678Z,101354.56
2022-10-23T06:44:37.878Z,101355.41
2022-10-23T06:47:14.586Z,101356.75
2022-10-23T06:50:11.757Z,101358.56
2022-10-23T06:52:47.113Z,101362.44
2022-10-23T06:55:17.544Z,101340.34
2022-10-23T06:57:45.288Z,101371.00
2022-10-23T07:00:13.859Z,101335.59
2022-10-23T07:02:49.874Z,101374.94
2022-10-23T07:05:17.750Z,101376.38
2022-10-23T07:07:45.264Z,101370.84
2022-10-23T07:10:16.362Z,101387.41
2022-10-23T07:12:49.097Z,101381.22
2022-10-23T07:15:52.075Z,101377.91
2022-10-23T07:18:25.338Z,101371.69
2022-10-23T07:21:11.088Z,101380.53
2022-10-23T07:23:40.534Z,101372.91
2022-10-23T07:26:17.076Z,101380.59
2022-10-23T07:28:47.849Z,101371.63
2022-10-23T07:31:23.056Z,101373.50
2022-10-23T07:34:11.722Z,101352.09
2022-10-23T07:36:40.520Z,101377.06
2022-10-23T07:39:07.949Z,101389.19
2022-10-23T07:41:42.033Z,101385.91
2022-10-23T07:44:09.431Z,101378.97
2022-10-23T07:46:36.887Z,101382.47
2022-10-23T07:49:04.463Z,101359.91
2022-10-23T07:51:32.063Z,101374.91
2022-10-23T07:54:00.548Z,101375.09
2022-10-23T07:56:50.911Z,101368.25
2022-10-23T07:59:22.035Z,101382.34
2022-10-23T08:01:55.794Z,101343.75
2022-10-23T08:04:28.655Z,101373.66
2022-10-23T08:07:10.404Z,101377.63
2022-10-23T08:09:41.993Z,101355.50
2022-10-23T08:12:10.191Z,101359.13
2022-10-23T08:14:37.512Z,101369.00
2022-10-23T08:17:10.136Z,101372.00
2022-10-23T08:20:01.375Z,101368.00
2022-10-23T08:22:37.162Z,101377.63
2022-10-23T08:25:05.068Z,101342.59
2022-10-23T08:27:32.430Z,101365.56
2022-10-23T08:29:59.786Z,101365.56
2022-10-23T08:32:31.308Z,101380.72
2022-10-23T08:35:00.406Z,101374.41
2022-10-23T08:37:30.950Z,101368.50
2022-10-23T08:39:58.904Z,101365.47
2022-10-23T08:43:10.634Z,101368.97
2022-10-23T08:46:13.265Z,101364.50
2022-10-23T08:49:26.956Z,101359.00
2022-10-23T08:52:14.152Z,101361.97
2022-10-23T08:54:53.376Z,101353.06
2022-10-23T08:57:26.855Z,101355.03
2022-10-23T09:00:08.379Z,101348.41
2022-10-23T09:02:43.330Z,101364.25
2022-10-23T09:05:17.857Z,101373.00
2022-10-23T09:07:56.867Z,101370.03
2022-10-23T09:10:46.986Z,101360.97
2022-10-23T09:13:35.201Z,101363.63
2022-10-23T09:16:31.219Z,101353.16
2022-10-23T09:18:58.878Z,101374.00
2022-10-23T09:21:29.402Z,101366.72
2022-10-23T09:23:57.161Z,101360.19
2022-10-23T09:26:24.450Z,101368.81
2022-10-23T09:29:06.463Z,101366.06
2022-10-23T09:31:33.775Z,101359.00
2022-10-23T09:34:02.141Z,101350.19
2022-10-23T09:36:30.035Z,101366.91
2022-10-23T09:38:59.845Z,101382.06
2022-10-23T09:41:31.319Z,101372.22
2022-10-23T09:44:21.663Z,101375.84
2022-10-23T09:46:54.172Z,101365.69
2022-10-23T09:49:30.610Z,101366.00
2022-10-23T09:52:05.975Z,101366.19
2022-10-23T09:54:56.252Z,101371.84
2022-10-23T09:57:45.101Z,101366.63
2022-10-23T10:00:14.359Z,101377.16
2022-10-23T10:02:44.430Z,101376.09
2022-10-23T10:05:33.406Z,101369.28
2022-10-23T10:08:24.475Z,101364.44
2022-10-23T10:10:58.178Z,101360.25
2022-10-23T10:13:34.242Z,101357.47
2022-10-23T10:16:21.501Z,101351.97
2022-10-23T10:18:57.847Z,101353.53
2022-10-23T10:22:15.415Z,101358.47
2022-10-23T10:24:51.833Z,101348.50
2022-10-23T10:27:28.388Z,101339.88
2022-10-23T10:30:01.548Z,101352.94
2022-10-23T10:32:43.963Z,101358.66
2022-10-23T10:35:47.462Z,101338.84
2022-10-23T10:38:17.914Z,101341.88
2022-10-23T10:41:06.481Z,101326.94
2022-10-23T10:43:39.482Z,101335.19
2022-10-23T10:46:40.273Z,101334.00
2022-10-23T10:49:19.906Z,101326.38
2022-10-23T10:52:14.596Z,101321.66
2022-10-23T10:55:15.292Z,101316.13
2022-10-23T10:57:47.781Z,101324.50
2022-10-23T11:00:21.109Z,101314.84
2022-10-23T11:03:40.293Z,101308.28
2022-10-23T11:06:15.523Z,101315.84
2022-10-23T11:08:56.559Z,101316.31
2022-10-23T11:11:32.388Z,101306.78
2022-10-23T11:14:00.031Z,101306.13
2022-10-23T11:16:34.386Z,101304.47
2022-10-23T11:19:18.585Z,101298.59
2022-10-23T11:22:12.243Z,101284.97
2022-10-23T11:24:42.184Z,101286.75
2022-10-23T11:27:20.560Z,101283.81
2022-10-23T11:30:02.227Z,101272.09
2022-10-23T11:32:49.363Z,101276.31
2022-10-23T11:35:44.262Z,101271.06
2022-10-23T11:38:39.258Z,101269.28
2022-10-23T11:41:29.708Z,101278.53
2022-10-23T11:44:05.964Z,101269.44
2022-10-23T11:46:36.573Z,101274.97
2022-10-23T11:49:06.588Z,101269.06
2022-10-23T11:51:39.613Z,101260.47
2022-10-23T11:54:15.689Z,101271.78
2022-10-23T11:57:03.101Z,101261.84
2022-10-23T11:59:35.778Z,101259.38
2022-10-23T12:02:28.252Z,101242.22
2022-10-23T12:04:56.588Z,101242.00
2022-10-23T12:07:28.840Z,101236.53
2022-10-23T12:10:17.899Z,101237.22
2022-10-23T12:12:56.659Z,101238.69
2022-10-23T12:15:26.322Z,101230.50
2022-10-23T12:17:56.269Z,101235.72
2022-10-23T12:20:38.702Z,101225.47
2022-10-23T12:23:31.837Z,101228.66
2022-10-23T12:26:17.701Z,101214.81
2022-10-23T12:29:09.889Z,101205.22
2022-10-23T12:32:02.503Z,101211.84
2022-10-23T12:34:50.850Z,101208.91
2022-10-23T12:37:31.340Z,101202.84
2022-10-23T12:39:59.451Z,101195.06
2022-10-23T12:42:30.389Z,101197.56
2022-10-23T12:45:22.205Z,101192.63
2022-10-23T12:47:50.829Z,101205.44
2022-10-23T12:50:25.078Z,101190.72
2022-10-23T12:52:53.610Z,101195.91
2022-10-23T12:55:21.734Z,101186.25
2022-10-23T12:57:49.739Z,101186.63
2022-10-23T13:00:23.420Z,101185.06
2022-10-23T13:03:01.925Z,101187.06
2022-10-23T13:05:30.809Z,101194.47
2022-10-23T13:07:59.875Z,101198.13
2022-10-23T13:10:42.837Z,101194.13
2022-10-23T13:13:12.288Z,101201.47
2022-10-23T13:15:45.321Z,101200.22
2022-10-23T13:18:14.799Z,101188.69
2022-10-23T13:20:58.702Z,101190.75
2022-10-23T13:23:36.419Z,101181.50
2022-10-23T13:26:21.799Z,101178.06
2022-10-23T13:28:50.150Z,101185.53
2022-10-23T13:31:17.402Z,101187.63
2022-10-23T13:34:16.473Z,101179.34
2022-10-23T13:36:56.781Z,101174.00
2022-10-23T13:39:27.580Z,101172.19
2022-10-23T13:41:54.870Z,101172.44
2022-10-23T13:44:24.720Z,101166.66
2022-10-23T13:46:52.505Z,101173.28
2022-10-23T13:49:20.201Z,101175.59
2022-10-23T13:51:55.290Z,101168.63
2022-10-23T13:56:59.935Z,101162.13
2022-10-23T13:59:27.385Z,101153.00
2022-10-23T14:01:54.919Z,101148.41
2022-10-23T14:04:23.938Z,101160.47
2022-10-23T14:06:55.069Z,101164.38
2022-10-23T14:09:22.551Z,101147.97
2022-10-23T14:11:49.930Z,101164.56
2022-10-23T14:14:17.282Z,101160.53
2022-10-23T14:16:44.558Z,101164.00
2022-10-23T14:19:12.160Z,101165.91
2022-10-23T14:21:39.607Z,101145.91
2022-10-23T14:24:07.085Z,101157.84
2022-10-23T14:26:35.671Z,101154.47
2022-10-23T14:29:07.643Z,101164.00
2022-10-23T14:31:38.775Z,101160.38
2022-10-23T14:34:06.009Z,101164.34
2022-10-23T14:36:43.598Z,101151.97
2022-10-23T14:39:17.495Z,101155.09
2022-10-23T14:41:44.902Z,101151.88
2022-10-23T14:44:12.212Z,101140.25
2022-10-23T14:46:39.635Z,101160.38
2022-10-23T14:49:07.062Z,101158.69
2022-10-23T14:51:34.542Z,101159.50
2022-10-23T14:54:05.413Z,101159.69
2022-10-23T14:56:36.485Z,101133.56
2022-10-23T14:59:05.271Z,101150.25
2022-10-23T15:01:35.185Z,101158.00
2022-10-23T15:04:02.661Z,101144.41
2022-10-23T15:06:29.971Z,101154.72
2022-10-23T15:08:57.327Z,101150.50
2022-10-23T15:11:25.816Z,101157.38
2022-10-23T15:13:54.982Z,101152.22
2022-10-23T15:16:23.637Z,101161.63
2022-10-23T15:18:51.600Z,101160.22
2022-10-23T15:21:19.262Z,101165.34
2022-10-23T15:23:47.594Z,101157.94
2022-10-23T15:26:21.253Z,101151.34
2022-10-23T15:28:54.496Z,101158.41
2022-10-23T15:31:30.950Z,101156.47
2022-10-23T15:33:58.413Z,101168.41
2022-10-23T15:36:26.839Z,101166.25
2022-10-23T15:38:54.241Z,101159.69
2022-10-23T15:41:28.395Z,101168.19
2022-10-23T15:43:55.770Z,101169.31
2022-10-23T15:46:23.643Z,101173.34
2022-10-23T15:48:51.280Z,101172.56
2022-10-23T15:51:18.718Z,101170.78
2022-10-23T15:53:46.077Z,101171.56
2022-10-23T15:56:13.417Z,101133.28
2022-10-23T15:58:40.798Z,101157.97
2022-10-23T16:01:08.651Z,101162.53
2022-10-23T16:03:38.221Z,101166.59
2022-10-23T16:06:11.419Z,101176.16
2022-10-23T16:08:39.470Z,101168.41
2022-10-23T16:11:32.353Z,101165.41
2022-10-23T16:14:00.896Z,101176.16
2022-10-23T16:16:29.432Z,101179.22
2022-10-23T16:19:00.102Z,101187.19
2022-10-23T16:21:31.433Z,101181.47
2022-10-23T16:24:00.955Z,101181.59
2022-10-23T16:26:30.027Z,101182.25
2022-10-23T16:29:00.167Z,101189.44
2022-10-23T16:31:28.471Z,101204.00
2022-10-23T16:33:58.784Z,101192.25
2022-10-23T16:36:26.773Z,101205.78
2022-10-23T16:39:18.273Z,101201.22
2022-10-23T16:42:06.308Z,101211.22
2022-10-23T16:44:57.206Z,101210.19
2022-10-23T16:47:24.821Z,101202.44
2022-10-23T16:49:52.212Z,101203.16
2022-10-23T16:52:19.588Z,101201.88
2022-10-23T16:54:46.910Z,101200.47
2022-10-23T16:57:14.236Z,101203.63
2022-10-23T16:59:41.737Z,101205.97
2022-10-23T17:02:13.273Z,101212.03
2022-10-23T17:04:40.993Z,101212.91
2022-10-23T17:07:08.472Z,101210.63
2022-10-23T17:09:36.100Z,101221.16
2022-10-23T17:12:03.515Z,101176.97
2022-10-23T17:14:30.879Z,101213.22
2022-10-23T17:17:01.812Z,101212.94
2022-10-23T17:19:44.718Z,101215.13
2022-10-23T17:22:13.591Z,101227.81
2022-10-23T17:24:45.339Z,101217.59
2022-10-23T17:27:15.083Z,101222.50
2022-10-23T17:29:42.530Z,101223.06
2022-10-23T17:32:09.987Z,101219.16
2022-10-23T17:34:38.237Z,101210.25
2022-10-23T17:37:05.713Z,101229.25
2022-10-23T17:39:33.124Z,101220.34
2022-10-23T17:42:00.504Z,101222.78
2022-10-23T17:44:29.493Z,101229.00
2022-10-23T17:46:57.105Z,101228.69
2022-10-23T17:49:25.207Z,101220.03
2022-10-23T17:51:57.649Z,101223.66
2022-10-23T17:54:26.857Z,101223.50
2022-10-23T17:56:54.594Z,101221.88
2022-10-23T17:59:22.895Z,101220.47
2022-10-23T18:01:50.728Z,101224.81
2022-10-23T18:04:20.320Z,101225.13
2022-10-23T18:06:50.978Z,101221.94
2022-10-23T18:09:22.965Z,101228.22
2022-10-23T18:11:51.028Z,101217.06
2022-10-23T18:14:20.269Z,101227.41
2022-10-23T18:16:48.519Z,101227.41
2022-10-23T18:19:18.446Z,101232.72
2022-10-23T18:21:47.223Z,101218.75
2022-10-23T18:24:15.526Z,101222.06
2022-10-23T18:26:43.819Z,101229.09
2022-10-23T18:29:12.671Z,101222.75
2022-10-23T18:31:40.765Z,101223.91
2022-10-23T18:34:18.344Z,101226.22
2022-10-23T18:36:46.069Z,101220.28
2022-10-23T18:39:16.513Z,101222.44
2022-10-23T18:41:46.300Z,101220.41
2022-10-23T18:44:20.745Z,101230.31
2022-10-23T18:46:48.900Z,101237.06
2022-10-23T18:49:18.757Z,101233.75
2022-10-23T18:51:46.226Z,101227.28
2022-10-23T18:54:15.702Z,101225.84
2022-10-23T18:56:44.179Z,101233.44
2022-10-23T18:59:15.201Z,101232.72
2022-10-23T19:01:43.425Z,101233.34
2022-10-23T19:04:16.310Z,101225.34
2022-10-23T19:06:45.015Z,101228.69
2022-10-23T19:09:14.184Z,101234.16
2022-10-23T19:11:42.884Z,101234.84
2022-10-23T19:14:10.327Z,101242.44
2022-10-23T19:16:47.072Z,101240.56
2022-10-23T19:19:21.580Z,101239.41
2022-10-23T19:21:50.267Z,101236.19
2022-10-23T19:24:25.205Z,101246.47
2022-10-23T19:26:52.623Z,101242.50
2022-10-23T19:29:22.709Z,101226.50
2022-10-23T19:31:50.493Z,101240.91
2022-10-23T19:34:20.330Z,101238.91
2022-10-23T19:36:48.669Z,101234.56
2022-10-23T19:39:17.387Z,101235.94
2022-10-23T19:41:45.739Z,101231.78
2022-10-23T19:44:16.062Z,101230.81
2022-10-23T19:46:43.830Z,101243.44
2022-10-23T19:49:11.780Z,101241.22
2022-10-23T19:51:39.491Z,101246.72
2022-10-23T19:54:07.256Z,101251.56
2022-10-23T19:56:36.140Z,101250.34
2022-10-23T19:59:03.744Z,101248.34
2022-10-23T20:01:31.491Z,101249.66
2022-10-23T20:03:59.201Z,101255.47
2022-10-23T20:06:29.950Z,101240.19
2022-10-23T20:08:58.017Z,101247.63
2022-10-23T20:11:31.316Z,101243.16
2022-10-23T20:13:58.919Z,101244.28
2022-10-23T20:16:32.602Z,101249.47
2022-10-23T20:19:07.071Z,101241.34
2022-10-23T20:21:39.346Z,101238.31
2022-10-23T20:24:07.511Z,101241.84
2022-10-23T20:26:35.091Z,101246.03
2022-10-23T20:29:02.476Z,101247.56
2022-10-23T20:31:29.896Z,101238.34
2022-10-23T20:33:57.505Z,101241.66
2022-10-23T20:36:35.829Z,101246.19
2022-10-23T20:39:06.531Z,101245.06
2022-10-23T20:41:37.074Z,101249.06
2022-10-23T20:44:07.242Z,101248.66
2022-10-23T20:46:35.015Z,101249.13
2022-10-23T20:49:02.837Z,101252.22
2022-10-23T20:51:30.268Z,101244.59
2022-10-23T20:53:57.962Z,101247.59
2022-10-23T20:56:38.878Z,101249.06
2022-10-23T20:59:14.747Z,101241.50
2022-10-23T21:01:49.816Z,101235.69
2022-10-23T21:04:23.720Z,101244.44
2022-10-23T21:07:10.309Z,101239.69
2022-10-23T21:09:38.553Z,101240.31
2022-10-23T21:12:06.935Z,101248.69
2022-10-23T21:14:34.960Z,101243.47
2022-10-23T21:17:02.572Z,101246.00
2022-10-23T21:19:30.024Z,101243.38
2022-10-23T21:21:57.521Z,101254.19
2022-10-23T21:24:24.997Z,101249.41
2022-10-23T21:26:52.507Z,101256.56
2022-10-23T21:29:20.714Z,101254.09
2022-10-23T21:31:56.291Z,101249.84
2022-10-23T21:34:25.213Z,101244.91
2022-10-23T21:39:41.017Z,101245.63
2022-10-23T21:42:08.805Z,101248.22
2022-10-23T21:44:36.324Z,101254.34
2022-10-23T21:47:04.060Z,101260.84
2022-10-23T21:49:31.438Z,101256.91
2022-10-23T21:51:58.767Z,101255.44
2022-10-23T21:54:26.048Z,101251.75
2022-10-23T21:56:54.108Z,101252.66
2022-10-23T21:59:25.782Z,101266.78
2022-10-23T22:01:55.312Z,101258.50
2022-10-23T22:04:22.793Z,101270.00
2022-10-23T22:06:50.154Z,101261.84
2022-10-23T22:09:20.063Z,101264.09
2022-10-23T22:11:52.805Z,101272.63
2022-10-23T22:14:21.143Z,101271.53
2022-10-23T22:16:49.039Z,101264.72
2022-10-23T22:19:18.232Z,101262.97
2022-10-23T22:21:46.654Z,101266.47
2022-10-23T22:24:14.389Z,101267.31
2022-10-23T22:26:44.742Z,101267.44
2022-10-23T22:29:15.083Z,101270.94
2022-10-23T22:31:45.576Z,101264.47
2022-10-23T22:34:41.110Z,101263.47
2022-10-23T22:37:12.095Z,101264.22
2022-10-23T22:39:39.967Z,101265.84
2022-10-23T22:42:07.438Z,101262.13
2022-10-23T22:44:34.751Z,101267.94
2022-10-23T22:47:04.313Z,101268.06
2022-10-23T22:49:31.593Z,101274.13
2022-10-23T22:51:58.908Z,101261.50
2022-10-23T22:54:26.373Z,101263.75
2022-10-23T22:56:53.700Z,101270.94
2022-10-23T22:59:21.104Z,101271.41
2022-10-23T23:01:49.868Z,101267.19
2022-10-23T23:07:11.525Z,101272.25
2022-10-23T23:09:41.680Z,101263.34
2022-10-23T23:12:11.345Z,101265.94
2022-10-23T23:14:39.351Z,101268.94
2022-10-23T23:17:08.109Z,101268.94
2022-10-23T23:19:36.186Z,101262.63
2022-10-23T23:22:03.992Z,101260.28
2022-10-23T23:24:32.363Z,101269.38
2022-10-23T23:26:59.787Z,101267.38
2022-10-23T23:29:28.565Z,101267.75
2022-10-23T23:31:55.843Z,101251.41
2022-10-23T23:34:23.191Z,101254.06
2022-10-23T23:36:50.563Z,101265.16
2022-10-23T23:39:17.899Z,101262.25
2022-10-23T23:41:45.185Z,101256.69
2022-10-23T23:44:14.110Z,101265.53
2022-10-23T23:46:41.400Z,101247.94
2022-10-23T23:49:08.684Z,101253.66
2022-10-23T23:51:37.409Z,101250.31
2022-10-23T23:54:05.714Z,101257.00
2022-10-23T23:56:33.026Z,101258.38
2022-10-23T23:59:01.846Z,101254.53
